Trang Airport
VTST : now visible

Airfield :











YOU CAN JOIN US ON...

 
LOGIN :

Register | Disclaimer

   EN    FR    IT 

 









Legend :    VFR   Marginal VFR   IFR   Intensive IFR   Very Intensive IFR
Visi :
Ceiling :
>= 8 km
>= 3000ft
5 to 8 km
1000 to 3000 ft
1500m to 5 km
500 to 1000 ft
800 to 1500m
200 to 500 ft
< 800m
< 200 ft
Symbols :   Thunderstorms  Fog  Heavy snow  Heavy precipitations  Wind > 20 kt






- Airport Elevation : 67 ft
- IATA code : TST


VTST - Trang

CURRENT METAR :
  • 170700Z 21007KT 9999 TS VCSH FEW016CB SCT040 31/24 Q1008 TEMPO FM0730 TL0800 3000 TSRA

EXPIRED METARs :
  • 170600Z 21007KT 180V250 9999 FEW030 32/24 Q1009 NOSIG
  • 170500Z 24006KT 200V270 9999 FEW030 32/25 Q1010 NOSIG

TAF TAF VTST
Valid from the 17 at 06:00 until the 18 at 06:00 UTC


170500Z 1706/1806 22006KT 9999 FEW020
BECMG 1712/1714 00000KT
BECMG 1802/1804 28008KT
VTBB FIR / Asia



MET'MAP, your aeronautical weather chart ! - Copyright ORBIFLY December 2007 - Disclaimer

ORBIFLY MET'MAP TEAM :

Programming & Development : Alexandra Zaïnal
Concept & original design : Baudouin d'Aumeries
Assistance for programming : Marc-Olivier Méhu
Technical & hardware support : Manuel Goepfert

Contact : metmap@orbifly.com




SOURCES & CREDITS :

   NOAA       Earth
Advisory